sensor_id;sensor_type;location;lat;lon;timestamp;temperature;humidity
35445;DHT22;21562;49.476;6.086;2022-07-06T00:02:14;19.40;95.00
35445;DHT22;21562;49.476;6.086;2022-07-06T00:04:40;19.30;95.10
35445;DHT22;21562;49.476;6.086;2022-07-06T00:07:05;19.30;95.30
35445;DHT22;21562;49.476;6.086;2022-07-06T00:09:32;19.20;95.20
35445;DHT22;21562;49.476;6.086;2022-07-06T00:11:58;19.40;95.10
35445;DHT22;21562;49.476;6.086;2022-07-06T00:14:24;19.40;95.10
35445;DHT22;21562;49.476;6.086;2022-07-06T00:16:49;19.40;95.00
35445;DHT22;21562;49.476;6.086;2022-07-06T00:19:15;19.20;95.20
35445;DHT22;21562;49.476;6.086;2022-07-06T00:21:41;19.10;95.10
35445;DHT22;21562;49.476;6.086;2022-07-06T00:24:07;19.10;95.00
35445;DHT22;21562;49.476;6.086;2022-07-06T00:26:33;19.00;95.10
35445;DHT22;21562;49.476;6.086;2022-07-06T00:28:59;19.10;94.90
35445;DHT22;21562;49.476;6.086;2022-07-06T00:31:24;19.10;94.80
35445;DHT22;21562;49.476;6.086;2022-07-06T00:33:50;18.90;95.00
35445;DHT22;21562;49.476;6.086;2022-07-06T00:36:16;18.70;95.30
35445;DHT22;21562;49.476;6.086;2022-07-06T00:38:42;18.70;95.30
35445;DHT22;21562;49.476;6.086;2022-07-06T00:41:08;18.80;95.20
35445;DHT22;21562;49.476;6.086;2022-07-06T00:43:54;18.90;94.90
35445;DHT22;21562;49.476;6.086;2022-07-06T00:46:27;18.80;94.90
35445;DHT22;21562;49.476;6.086;2022-07-06T00:48:53;18.70;95.00
35445;DHT22;21562;49.476;6.086;2022-07-06T00:51:19;18.80;95.10
35445;DHT22;21562;49.476;6.086;2022-07-06T00:53:46;18.80;94.60
35445;DHT22;21562;49.476;6.086;2022-07-06T00:56:12;18.80;94.60
35445;DHT22;21562;49.476;6.086;2022-07-06T00:58:39;18.60;94.50
35445;DHT22;21562;49.476;6.086;2022-07-06T01:01:04;18.60;94.70
35445;DHT22;21562;49.476;6.086;2022-07-06T01:03:30;18.60;95.00
35445;DHT22;21562;49.476;6.086;2022-07-06T01:05:56;18.80;94.70
35445;DHT22;21562;49.476;6.086;2022-07-06T01:08:22;18.70;94.50
35445;DHT22;21562;49.476;6.086;2022-07-06T01:10:48;18.80;94.20
35445;DHT22;21562;49.476;6.086;2022-07-06T01:13:13;18.30;95.10
35445;DHT22;21562;49.476;6.086;2022-07-06T01:15:39;18.00;95.60
35445;DHT22;21562;49.476;6.086;2022-07-06T01:18:05;18.00;95.40
35445;DHT22;21562;49.476;6.086;2022-07-06T01:20:30;18.00;95.60
35445;DHT22;21562;49.476;6.086;2022-07-06T01:22:59;18.00;95.30
35445;DHT22;21562;49.476;6.086;2022-07-06T01:25:24;18.00;95.50
35445;DHT22;21562;49.476;6.086;2022-07-06T01:27:50;18.20;95.40
35445;DHT22;21562;49.476;6.086;2022-07-06T01:30:18;18.20;95.10
35445;DHT22;21562;49.476;6.086;2022-07-06T01:32:44;18.20;95.00
35445;DHT22;21562;49.476;6.086;2022-07-06T01:35:12;18.20;94.80
35445;DHT22;21562;49.476;6.086;2022-07-06T01:37:38;18.20;94.70
35445;DHT22;21562;49.476;6.086;2022-07-06T01:40:08;18.20;95.00
35445;DHT22;21562;49.476;6.086;2022-07-06T01:42:34;18.20;94.80
35445;DHT22;21562;49.476;6.086;2022-07-06T01:45:00;18.20;94.90
35445;DHT22;21562;49.476;6.086;2022-07-06T01:47:26;18.20;94.60
35445;DHT22;21562;49.476;6.086;2022-07-06T01:49:52;18.10;94.80
35445;DHT22;21562;49.476;6.086;2022-07-06T01:52:18;18.10;94.80
35445;DHT22;21562;49.476;6.086;2022-07-06T01:54:44;18.20;94.70
35445;DHT22;21562;49.476;6.086;2022-07-06T01:57:09;18.00;94.90
35445;DHT22;21562;49.476;6.086;2022-07-06T01:59:35;18.20;94.80
35445;DHT22;21562;49.476;6.086;2022-07-06T02:02:01;18.20;94.60
35445;DHT22;21562;49.476;6.086;2022-07-06T02:04:27;18.20;94.50
35445;DHT22;21562;49.476;6.086;2022-07-06T02:06:52;18.30;94.30
35445;DHT22;21562;49.476;6.086;2022-07-06T02:09:18;18.00;94.80
35445;DHT22;21562;49.476;6.086;2022-07-06T02:11:44;18.10;94.60
35445;DHT22;21562;49.476;6.086;2022-07-06T02:14:10;17.50;95.80
35445;DHT22;21562;49.476;6.086;2022-07-06T02:16:35;17.40;95.60
35445;DHT22;21562;49.476;6.086;2022-07-06T02:19:01;17.60;95.70
35445;DHT22;21562;49.476;6.086;2022-07-06T02:21:27;17.50;95.70
35445;DHT22;21562;49.476;6.086;2022-07-06T02:23:53;17.80;95.40
35445;DHT22;21562;49.476;6.086;2022-07-06T02:26:19;17.90;95.20
35445;DHT22;21562;49.476;6.086;2022-07-06T02:28:44;18.10;94.70
35445;DHT22;21562;49.476;6.086;2022-07-06T02:31:11;17.90;95.00
35445;DHT22;21562;49.476;6.086;2022-07-06T02:33:39;18.10;95.00
35445;DHT22;21562;49.476;6.086;2022-07-06T02:36:05;18.20;94.70
35445;DHT22;21562;49.476;6.086;2022-07-06T02:38:30;17.90;94.70
35445;DHT22;21562;49.476;6.086;2022-07-06T02:40:56;17.70;95.10
35445;DHT22;21562;49.476;6.086;2022-07-06T02:43:21;17.50;95.40
35445;DHT22;21562;49.476;6.086;2022-07-06T02:45:47;17.60;95.50
35445;DHT22;21562;49.476;6.086;2022-07-06T02:48:13;17.40;95.90
35445;DHT22;21562;49.476;6.086;2022-07-06T02:50:39;17.00;96.30
35445;DHT22;21562;49.476;6.086;2022-07-06T02:53:04;16.90;96.50
35445;DHT22;21562;49.476;6.086;2022-07-06T02:55:30;17.20;96.50
35445;DHT22;21562;49.476;6.086;2022-07-06T02:57:56;17.40;96.20
35445;DHT22;21562;49.476;6.086;2022-07-06T03:00:21;17.40;95.60
35445;DHT22;21562;49.476;6.086;2022-07-06T03:02:47;17.20;95.90
35445;DHT22;21562;49.476;6.086;2022-07-06T03:05:13;16.90;96.50
35445;DHT22;21562;49.476;6.086;2022-07-06T03:07:38;16.90;96.90
35445;DHT22;21562;49.476;6.086;2022-07-06T03:10:04;16.60;97.30
35445;DHT22;21562;49.476;6.086;2022-07-06T03:12:30;16.70;97.20
35445;DHT22;21562;49.476;6.086;2022-07-06T03:14:55;16.70;97.50
35445;DHT22;21562;49.476;6.086;2022-07-06T03:17:21;16.90;97.30
35445;DHT22;21562;49.476;6.086;2022-07-06T03:19:47;17.20;97.00
35445;DHT22;21562;49.476;6.086;2022-07-06T03:22:13;17.30;96.60
35445;DHT22;21562;49.476;6.086;2022-07-06T03:24:38;17.20;96.40
35445;DHT22;21562;49.476;6.086;2022-07-06T03:27:04;17.10;96.30
35445;DHT22;21562;49.476;6.086;2022-07-06T03:29:30;17.00;96.70
35445;DHT22;21562;49.476;6.086;2022-07-06T03:31:56;17.20;96.40
35445;DHT22;21562;49.476;6.086;2022-07-06T03:34:21;17.20;96.20
35445;DHT22;21562;49.476;6.086;2022-07-06T03:36:47;17.40;96.10
35445;DHT22;21562;49.476;6.086;2022-07-06T03:39:13;17.30;95.80
35445;DHT22;21562;49.476;6.086;2022-07-06T03:41:38;17.10;96.00
35445;DHT22;21562;49.476;6.086;2022-07-06T03:44:04;17.10;95.90
35445;DHT22;21562;49.476;6.086;2022-07-06T03:46:31;17.20;96.40
35445;DHT22;21562;49.476;6.086;2022-07-06T03:48:56;17.30;95.80
35445;DHT22;21562;49.476;6.086;2022-07-06T03:51:22;17.70;99.90
35445;DHT22;21562;49.476;6.086;2022-07-06T03:53:48;18.90;99.90
35445;DHT22;21562;49.476;6.086;2022-07-06T03:56:13;19.80;99.90
35445;DHT22;21562;49.476;6.086;2022-07-06T03:59:01;20.40;96.20
35445;DHT22;21562;49.476;6.086;2022-07-06T04:01:28;21.00;98.00
35445;DHT22;21562;49.476;6.086;2022-07-06T04:03:53;21.40;96.10
35445;DHT22;21562;49.476;6.086;2022-07-06T04:06:19;21.70;94.20
35445;DHT22;21562;49.476;6.086;2022-07-06T04:08:45;21.50;95.30
35445;DHT22;21562;49.476;6.086;2022-07-06T04:11:11;21.50;91.70
35445;DHT22;21562;49.476;6.086;2022-07-06T04:13:37;21.40;93.50
35445;DHT22;21562;49.476;6.086;2022-07-06T04:16:05;21.30;94.80
35445;DHT22;21562;49.476;6.086;2022-07-06T04:18:31;21.50;94.30
35445;DHT22;21562;49.476;6.086;2022-07-06T04:20:56;21.80;92.30
35445;DHT22;21562;49.476;6.086;2022-07-06T04:23:25;21.50;93.80
35445;DHT22;21562;49.476;6.086;2022-07-06T04:25:50;21.70;90.70
35445;DHT22;21562;49.476;6.086;2022-07-06T04:28:16;21.60;93.60
35445;DHT22;21562;49.476;6.086;2022-07-06T04:30:42;21.80;93.10
35445;DHT22;21562;49.476;6.086;2022-07-06T04:33:08;21.80;91.50
35445;DHT22;21562;49.476;6.086;2022-07-06T04:35:33;21.80;91.70
35445;DHT22;21562;49.476;6.086;2022-07-06T04:37:59;21.70;91.50
35445;DHT22;21562;49.476;6.086;2022-07-06T04:40:25;21.10;89.70
35445;DHT22;21562;49.476;6.086;2022-07-06T04:42:50;20.80;90.30
35445;DHT22;21562;49.476;6.086;2022-07-06T04:45:16;19.90;90.70
35445;DHT22;21562;49.476;6.086;2022-07-06T04:47:42;19.30;91.70
35445;DHT22;21562;49.476;6.086;2022-07-06T04:50:09;18.60;92.30
35445;DHT22;21562;49.476;6.086;2022-07-06T04:52:35;18.40;92.90
35445;DHT22;21562;49.476;6.086;2022-07-06T04:55:01;18.10;93.20
35445;DHT22;21562;49.476;6.086;2022-07-06T04:57:26;17.70;93.90
35445;DHT22;21562;49.476;6.086;2022-07-06T04:59:54;17.60;94.00
35445;DHT22;21562;49.476;6.086;2022-07-06T05:02:20;17.50;94.50
35445;DHT22;21562;49.476;6.086;2022-07-06T05:04:46;17.20;94.70
35445;DHT22;21562;49.476;6.086;2022-07-06T05:07:11;17.30;94.90
35445;DHT22;21562;49.476;6.086;2022-07-06T05:09:37;17.00;95.40
35445;DHT22;21562;49.476;6.086;2022-07-06T05:12:03;17.00;95.60
35445;DHT22;21562;49.476;6.086;2022-07-06T05:14:29;17.00;96.20
35445;DHT22;21562;49.476;6.086;2022-07-06T05:16:54;17.70;98.80
35445;DHT22;21562;49.476;6.086;2022-07-06T05:19:20;18.20;98.10
35445;DHT22;21562;49.476;6.086;2022-07-06T05:21:46;18.10;99.50
35445;DHT22;21562;49.476;6.086;2022-07-06T05:24:11;18.80;98.60
35445;DHT22;21562;49.476;6.086;2022-07-06T05:26:37;19.20;95.50
35445;DHT22;21562;49.476;6.086;2022-07-06T05:29:02;19.10;97.50
35445;DHT22;21562;49.476;6.086;2022-07-06T05:31:28;19.00;96.20
35445;DHT22;21562;49.476;6.086;2022-07-06T05:33:54;19.40;96.50
35445;DHT22;21562;49.476;6.086;2022-07-06T05:36:19;18.80;96.50
35445;DHT22;21562;49.476;6.086;2022-07-06T05:38:45;18.70;95.40
35445;DHT22;21562;49.476;6.086;2022-07-06T05:41:10;18.20;95.70
35445;DHT22;21562;49.476;6.086;2022-07-06T05:43:36;18.60;94.80
35445;DHT22;21562;49.476;6.086;2022-07-06T05:46:03;18.60;95.50
35445;DHT22;21562;49.476;6.086;2022-07-06T05:48:28;18.90;97.60
35445;DHT22;21562;49.476;6.086;2022-07-06T05:51:13;18.90;95.50
35445;DHT22;21562;49.476;6.086;2022-07-06T05:53:38;18.70;97.30
35445;DHT22;21562;49.476;6.086;2022-07-06T05:56:04;19.00;95.00
35445;DHT22;21562;49.476;6.086;2022-07-06T05:58:30;19.30;95.00
35445;DHT22;21562;49.476;6.086;2022-07-06T06:00:55;19.60;94.10
35445;DHT22;21562;49.476;6.086;2022-07-06T06:03:21;18.90;95.60
35445;DHT22;21562;49.476;6.086;2022-07-06T06:05:47;18.90;95.10
35445;DHT22;21562;49.476;6.086;2022-07-06T06:08:13;18.60;97.00
35445;DHT22;21562;49.476;6.086;2022-07-06T06:10:38;19.30;94.50
35445;DHT22;21562;49.476;6.086;2022-07-06T06:13:04;19.30;92.60
35445;DHT22;21562;49.476;6.086;2022-07-06T06:15:30;18.90;94.20
35445;DHT22;21562;49.476;6.086;2022-07-06T06:17:55;19.00;94.40
35445;DHT22;21562;49.476;6.086;2022-07-06T06:20:21;19.60;93.40
35445;DHT22;21562;49.476;6.086;2022-07-06T06:22:52;20.10;92.40
35445;DHT22;21562;49.476;6.086;2022-07-06T06:25:20;19.80;91.60
35445;DHT22;21562;49.476;6.086;2022-07-06T06:27:47;19.50;92.00
35445;DHT22;21562;49.476;6.086;2022-07-06T06:30:13;19.10;92.80
35445;DHT22;21562;49.476;6.086;2022-07-06T06:32:39;19.30;92.40
35445;DHT22;21562;49.476;6.086;2022-07-06T06:35:06;19.50;92.40
35445;DHT22;21562;49.476;6.086;2022-07-06T06:37:32;19.60;90.80
35445;DHT22;21562;49.476;6.086;2022-07-06T06:39:58;19.70;94.50
35445;DHT22;21562;49.476;6.086;2022-07-06T06:42:23;19.80;91.00
35445;DHT22;21562;49.476;6.086;2022-07-06T06:44:49;20.40;92.60
35445;DHT22;21562;49.476;6.086;2022-07-06T06:47:15;20.80;91.90
35445;DHT22;21562;49.476;6.086;2022-07-06T06:49:40;21.00;90.20
35445;DHT22;21562;49.476;6.086;2022-07-06T06:52:06;21.10;89.80
35445;DHT22;21562;49.476;6.086;2022-07-06T06:54:32;21.10;89.10
35445;DHT22;21562;49.476;6.086;2022-07-06T06:56:58;21.20;90.00
35445;DHT22;21562;49.476;6.086;2022-07-06T06:59:24;20.50;92.30
35445;DHT22;21562;49.476;6.086;2022-07-06T07:01:49;20.50;89.50
35445;DHT22;21562;49.476;6.086;2022-07-06T07:04:15;20.50;88.00
35445;DHT22;21562;49.476;6.086;2022-07-06T07:06:41;20.20;90.50
35445;DHT22;21562;49.476;6.086;2022-07-06T07:09:06;20.50;89.10
35445;DHT22;21562;49.476;6.086;2022-07-06T07:11:32;20.50;87.50
35445;DHT22;21562;49.476;6.086;2022-07-06T07:13:58;20.40;87.70
35445;DHT22;21562;49.476;6.086;2022-07-06T07:16:26;20.70;89.80
35445;DHT22;21562;49.476;6.086;2022-07-06T07:18:51;21.00;88.80
35445;DHT22;21562;49.476;6.086;2022-07-06T07:21:17;21.10;85.50
35445;DHT22;21562;49.476;6.086;2022-07-06T07:23:43;21.10;88.80
35445;DHT22;21562;49.476;6.086;2022-07-06T07:26:09;19.90;85.10
35445;DHT22;21562;49.476;6.086;2022-07-06T07:28:34;18.60;90.60
35445;DHT22;21562;49.476;6.086;2022-07-06T07:31:00;19.00;90.50
35445;DHT22;21562;49.476;6.086;2022-07-06T07:33:26;19.50;90.10
35445;DHT22;21562;49.476;6.086;2022-07-06T07:35:51;19.90;89.80
35445;DHT22;21562;49.476;6.086;2022-07-06T07:38:17;20.50;86.50
35445;DHT22;21562;49.476;6.086;2022-07-06T07:40:42;20.80;85.40
35445;DHT22;21562;49.476;6.086;2022-07-06T07:43:08;20.80;84.30
35445;DHT22;21562;49.476;6.086;2022-07-06T07:45:34;21.00;84.30
35445;DHT22;21562;49.476;6.086;2022-07-06T07:47:59;21.10;85.20
35445;DHT22;21562;49.476;6.086;2022-07-06T07:50:25;21.50;89.70
35445;DHT22;21562;49.476;6.086;2022-07-06T07:52:52;22.10;90.40
35445;DHT22;21562;49.476;6.086;2022-07-06T07:55:18;22.80;85.80
35445;DHT22;21562;49.476;6.086;2022-07-06T07:57:43;22.80;82.30
35445;DHT22;21562;49.476;6.086;2022-07-06T08:00:10;22.30;79.70
35445;DHT22;21562;49.476;6.086;2022-07-06T08:02:35;22.40;81.80
35445;DHT22;21562;49.476;6.086;2022-07-06T08:05:01;22.80;85.50
35445;DHT22;21562;49.476;6.086;2022-07-06T08:07:27;23.00;83.80
35445;DHT22;21562;49.476;6.086;2022-07-06T08:09:53;23.20;78.40
35445;DHT22;21562;49.476;6.086;2022-07-06T08:12:18;21.80;80.30
35445;DHT22;21562;49.476;6.086;2022-07-06T08:14:44;22.10;80.20
35445;DHT22;21562;49.476;6.086;2022-07-06T08:17:10;21.50;79.60
35445;DHT22;21562;49.476;6.086;2022-07-06T08:19:35;21.50;81.00
35445;DHT22;21562;49.476;6.086;2022-07-06T08:22:01;21.20;85.30
35445;DHT22;21562;49.476;6.086;2022-07-06T08:24:33;21.60;82.40
35445;DHT22;21562;49.476;6.086;2022-07-06T08:26:58;21.80;84.50
35445;DHT22;21562;49.476;6.086;2022-07-06T08:29:24;21.50;79.90
35445;DHT22;21562;49.476;6.086;2022-07-06T08:31:50;21.00;82.20
35445;DHT22;21562;49.476;6.086;2022-07-06T08:34:15;21.30;82.70
35445;DHT22;21562;49.476;6.086;2022-07-06T08:36:41;20.80;81.40
35445;DHT22;21562;49.476;6.086;2022-07-06T08:39:07;21.20;85.00
35445;DHT22;21562;49.476;6.086;2022-07-06T08:41:33;21.10;81.10
35445;DHT22;21562;49.476;6.086;2022-07-06T08:44:00;21.30;84.50
35445;DHT22;21562;49.476;6.086;2022-07-06T08:46:27;21.90;83.10
35445;DHT22;21562;49.476;6.086;2022-07-06T08:48:54;22.10;81.60
35445;DHT22;21562;49.476;6.086;2022-07-06T08:51:21;22.10;83.30
35445;DHT22;21562;49.476;6.086;2022-07-06T08:53:49;22.40;79.40
35445;DHT22;21562;49.476;6.086;2022-07-06T08:56:16;22.30;79.80
35445;DHT22;21562;49.476;6.086;2022-07-06T08:58:41;22.80;78.40
35445;DHT22;21562;49.476;6.086;2022-07-06T09:01:09;22.80;79.80
35445;DHT22;21562;49.476;6.086;2022-07-06T09:03:36;22.60;80.80
35445;DHT22;21562;49.476;6.086;2022-07-06T09:06:03;22.80;80.00
35445;DHT22;21562;49.476;6.086;2022-07-06T09:08:30;22.50;77.50
35445;DHT22;21562;49.476;6.086;2022-07-06T09:10:56;21.60;78.50
35445;DHT22;21562;49.476;6.086;2022-07-06T09:13:22;20.80;80.80
35445;DHT22;21562;49.476;6.086;2022-07-06T09:15:48;20.50;83.10
35445;DHT22;21562;49.476;6.086;2022-07-06T09:18:14;20.90;81.80
35445;DHT22;21562;49.476;6.086;2022-07-06T09:20:41;21.50;81.50
35445;DHT22;21562;49.476;6.086;2022-07-06T09:23:07;21.60;83.90
35445;DHT22;21562;49.476;6.086;2022-07-06T09:25:35;22.30;79.30
35445;DHT22;21562;49.476;6.086;2022-07-06T09:28:01;22.50;79.10
35445;DHT22;21562;49.476;6.086;2022-07-06T09:30:29;22.60;80.60
35445;DHT22;21562;49.476;6.086;2022-07-06T09:32:58;22.90;77.70
35445;DHT22;21562;49.476;6.086;2022-07-06T09:35:29;22.80;80.30
35445;DHT22;21562;49.476;6.086;2022-07-06T09:38:05;23.20;81.20
35445;DHT22;21562;49.476;6.086;2022-07-06T09:40:33;23.30;75.20
35445;DHT22;21562;49.476;6.086;2022-07-06T09:45:41;23.00;78.50
35445;DHT22;21562;49.476;6.086;2022-07-06T09:48:27;23.30;81.40
35445;DHT22;21562;49.476;6.086;2022-07-06T09:50:57;23.80;76.00
35445;DHT22;21562;49.476;6.086;2022-07-06T09:53:25;24.20;75.90
35445;DHT22;21562;49.476;6.086;2022-07-06T09:55:53;24.40;77.10
35445;DHT22;21562;49.476;6.086;2022-07-06T09:58:20;23.80;73.90
35445;DHT22;21562;49.476;6.086;2022-07-06T10:00:47;22.80;77.00
35445;DHT22;21562;49.476;6.086;2022-07-06T10:03:14;22.50;79.90
35445;DHT22;21562;49.476;6.086;2022-07-06T10:05:47;23.10;76.10
35445;DHT22;21562;49.476;6.086;2022-07-06T10:08:15;22.60;79.40
35445;DHT22;21562;49.476;6.086;2022-07-06T10:10:41;23.10;77.10
35445;DHT22;21562;49.476;6.086;2022-07-06T10:13:08;23.20;76.60
35445;DHT22;21562;49.476;6.086;2022-07-06T10:15:36;22.80;75.00
35445;DHT22;21562;49.476;6.086;2022-07-06T10:18:06;22.80;76.10
35445;DHT22;21562;49.476;6.086;2022-07-06T10:20:35;21.60;75.90
35445;DHT22;21562;49.476;6.086;2022-07-06T10:23:05;21.70;78.30
35445;DHT22;21562;49.476;6.086;2022-07-06T10:25:32;22.30;76.50
35445;DHT22;21562;49.476;6.086;2022-07-06T10:27:59;22.30;76.20
35445;DHT22;21562;49.476;6.086;2022-07-06T10:30:25;22.70;76.20
35445;DHT22;21562;49.476;6.086;2022-07-06T10:32:54;23.10;74.60
35445;DHT22;21562;49.476;6.086;2022-07-06T10:35:22;23.40;76.80
35445;DHT22;21562;49.476;6.086;2022-07-06T10:38:05;23.70;78.30
35445;DHT22;21562;49.476;6.086;2022-07-06T10:40:39;23.60;75.50
35445;DHT22;21562;49.476;6.086;2022-07-06T10:43:31;23.20;79.30
35445;DHT22;21562;49.476;6.086;2022-07-06T10:45:57;23.90;75.20
35445;DHT22;21562;49.476;6.086;2022-07-06T10:48:23;23.90;73.30
35445;DHT22;21562;49.476;6.086;2022-07-06T10:50:54;22.80;74.40
35445;DHT22;21562;49.476;6.086;2022-07-06T11:15:05;20.80;82.80
35445;DHT22;21562;49.476;6.086;2022-07-06T11:17:31;21.70;80.10
35445;DHT22;21562;49.476;6.086;2022-07-06T11:19:59;22.40;77.00
35445;DHT22;21562;49.476;6.086;2022-07-06T11:22:36;22.90;76.70
35445;DHT22;21562;49.476;6.086;2022-07-06T11:25:03;22.70;75.70
35445;DHT22;21562;49.476;6.086;2022-07-06T11:27:29;22.10;75.30
35445;DHT22;21562;49.476;6.086;2022-07-06T11:29:55;21.80;75.50
35445;DHT22;21562;49.476;6.086;2022-07-06T11:32:27;22.20;76.70
35445;DHT22;21562;49.476;6.086;2022-07-06T11:34:53;23.10;75.90
35445;DHT22;21562;49.476;6.086;2022-07-06T11:37:19;22.40;73.70
35445;DHT22;21562;49.476;6.086;2022-07-06T11:39:47;22.20;75.80
35445;DHT22;21562;49.476;6.086;2022-07-06T11:42:15;22.90;75.20
35445;DHT22;21562;49.476;6.086;2022-07-06T11:44:42;23.70;74.80
35445;DHT22;21562;49.476;6.086;2022-07-06T11:47:09;24.10;75.70
35445;DHT22;21562;49.476;6.086;2022-07-06T11:49:36;24.50;72.30
35445;DHT22;21562;49.476;6.086;2022-07-06T11:52:12;24.70;72.30
35445;DHT22;21562;49.476;6.086;2022-07-06T11:54:39;24.50;71.80
35445;DHT22;21562;49.476;6.086;2022-07-06T11:57:08;23.80;71.30
35445;DHT22;21562;49.476;6.086;2022-07-06T11:59:36;23.40;73.00
35445;DHT22;21562;49.476;6.086;2022-07-06T12:02:06;23.60;71.30
35445;DHT22;21562;49.476;6.086;2022-07-06T12:04:35;23.40;72.40
35445;DHT22;21562;49.476;6.086;2022-07-06T12:07:08;23.70;73.00
35445;DHT22;21562;49.476;6.086;2022-07-06T12:09:35;23.60;71.20
35445;DHT22;21562;49.476;6.086;2022-07-06T12:12:02;23.40;73.50
35445;DHT22;21562;49.476;6.086;2022-07-06T12:14:30;22.90;73.50
35445;DHT22;21562;49.476;6.086;2022-07-06T12:16:55;22.90;74.40
35445;DHT22;21562;49.476;6.086;2022-07-06T12:19:22;22.90;73.30
35445;DHT22;21562;49.476;6.086;2022-07-06T12:21:51;22.90;73.30
35445;DHT22;21562;49.476;6.086;2022-07-06T12:24:22;23.00;73.00
35445;DHT22;21562;49.476;6.086;2022-07-06T12:26:49;22.30;74.70
35445;DHT22;21562;49.476;6.086;2022-07-06T12:29:16;21.80;75.60
35445;DHT22;21562;49.476;6.086;2022-07-06T12:31:55;21.50;76.10
35445;DHT22;21562;49.476;6.086;2022-07-06T12:34:23;21.60;76.40
35445;DHT22;21562;49.476;6.086;2022-07-06T12:36:55;22.00;77.60
35445;DHT22;21562;49.476;6.086;2022-07-06T12:39:23;22.60;76.10
35445;DHT22;21562;49.476;6.086;2022-07-06T12:42:02;22.80;74.90
35445;DHT22;21562;49.476;6.086;2022-07-06T12:44:31;23.20;74.50
35445;DHT22;21562;49.476;6.086;2022-07-06T12:47:05;22.90;74.40
35445;DHT22;21562;49.476;6.086;2022-07-06T12:49:32;23.00;73.70
35445;DHT22;21562;49.476;6.086;2022-07-06T12:57:13;22.90;74.50
35445;DHT22;21562;49.476;6.086;2022-07-06T12:59:47;22.40;76.10
35445;DHT22;21562;49.476;6.086;2022-07-06T13:02:22;22.30;76.40
35445;DHT22;21562;49.476;6.086;2022-07-06T13:07:25;22.70;77.00
35445;DHT22;21562;49.476;6.086;2022-07-06T13:09:51;22.90;75.60
35445;DHT22;21562;49.476;6.086;2022-07-06T13:12:16;22.80;76.20
35445;DHT22;21562;49.476;6.086;2022-07-06T13:14:42;23.20;74.90
35445;DHT22;21562;49.476;6.086;2022-07-06T13:17:08;23.60;74.80
35445;DHT22;21562;49.476;6.086;2022-07-06T13:19:33;23.70;74.80
35445;DHT22;21562;49.476;6.086;2022-07-06T13:21:59;23.80;73.10
35445;DHT22;21562;49.476;6.086;2022-07-06T13:24:24;23.30;74.10
35445;DHT22;21562;49.476;6.086;2022-07-06T13:26:53;22.10;75.50
35445;DHT22;21562;49.476;6.086;2022-07-06T13:29:19;22.10;76.70
35445;DHT22;21562;49.476;6.086;2022-07-06T13:31:45;22.10;76.80
35445;DHT22;21562;49.476;6.086;2022-07-06T13:34:10;21.90;77.10
35445;DHT22;21562;49.476;6.086;2022-07-06T13:36:36;21.20;78.70
35445;DHT22;21562;49.476;6.086;2022-07-06T13:39:03;21.50;78.10
35445;DHT22;21562;49.476;6.086;2022-07-06T13:41:28;22.40;81.50
35445;DHT22;21562;49.476;6.086;2022-07-06T13:43:54;22.90;77.30
35445;DHT22;21562;49.476;6.086;2022-07-06T13:46:21;23.50;76.70
35445;DHT22;21562;49.476;6.086;2022-07-06T13:48:47;23.50;77.30
35445;DHT22;21562;49.476;6.086;2022-07-06T13:51:13;23.00;75.40
35445;DHT22;21562;49.476;6.086;2022-07-06T13:53:38;23.50;77.10
35445;DHT22;21562;49.476;6.086;2022-07-06T13:56:05;24.10;77.00
35445;DHT22;21562;49.476;6.086;2022-07-06T13:58:32;24.30;74.70
35445;DHT22;21562;49.476;6.086;2022-07-06T14:00:57;24.60;75.20
35445;DHT22;21562;49.476;6.086;2022-07-06T14:03:23;24.80;73.30
35445;DHT22;21562;49.476;6.086;2022-07-06T14:05:58;25.00;73.90
35445;DHT22;21562;49.476;6.086;2022-07-06T14:08:24;23.60;74.60
35445;DHT22;21562;49.476;6.086;2022-07-06T14:10:50;23.30;75.80
35445;DHT22;21562;49.476;6.086;2022-07-06T14:13:16;22.60;77.60
35445;DHT22;21562;49.476;6.086;2022-07-06T14:15:41;22.40;77.00
35445;DHT22;21562;49.476;6.086;2022-07-06T14:18:07;22.80;76.80
35445;DHT22;21562;49.476;6.086;2022-07-06T14:20:32;23.00;79.10
35445;DHT22;21562;49.476;6.086;2022-07-06T14:22:58;23.10;78.60
35445;DHT22;21562;49.476;6.086;2022-07-06T14:25:24;23.80;75.30
35445;DHT22;21562;49.476;6.086;2022-07-06T14:27:49;23.70;76.40
35445;DHT22;21562;49.476;6.086;2022-07-06T14:30:15;23.40;75.50
35445;DHT22;21562;49.476;6.086;2022-07-06T14:32:40;23.50;77.70
35445;DHT22;21562;49.476;6.086;2022-07-06T14:35:09;24.00;76.00
35445;DHT22;21562;49.476;6.086;2022-07-06T14:37:35;23.70;76.50
35445;DHT22;21562;49.476;6.086;2022-07-06T14:40:01;23.50;76.20
35445;DHT22;21562;49.476;6.086;2022-07-06T14:42:27;22.90;78.60
35445;DHT22;21562;49.476;6.086;2022-07-06T14:44:52;23.60;76.70
35445;DHT22;21562;49.476;6.086;2022-07-06T14:47:18;24.30;75.30
35445;DHT22;21562;49.476;6.086;2022-07-06T14:49:44;23.90;75.60
35445;DHT22;21562;49.476;6.086;2022-07-06T14:52:09;24.00;76.80
35445;DHT22;21562;49.476;6.086;2022-07-06T14:54:35;23.80;76.40
35445;DHT22;21562;49.476;6.086;2022-07-06T14:57:02;23.40;75.00
35445;DHT22;21562;49.476;6.086;2022-07-06T14:59:30;23.00;76.50
35445;DHT22;21562;49.476;6.086;2022-07-06T15:01:55;22.60;79.10
35445;DHT22;21562;49.476;6.086;2022-07-06T15:04:21;22.90;77.20
35445;DHT22;21562;49.476;6.086;2022-07-06T15:06:48;22.80;76.70
35445;DHT22;21562;49.476;6.086;2022-07-06T15:09:14;23.00;77.50
35445;DHT22;21562;49.476;6.086;2022-07-06T15:11:39;22.90;77.60
35445;DHT22;21562;49.476;6.086;2022-07-06T15:14:05;23.20;78.60
35445;DHT22;21562;49.476;6.086;2022-07-06T15:16:31;23.90;75.40
35445;DHT22;21562;49.476;6.086;2022-07-06T15:18:56;24.00;75.50
35445;DHT22;21562;49.476;6.086;2022-07-06T15:21:23;24.20;76.00
35445;DHT22;21562;49.476;6.086;2022-07-06T15:23:48;24.40;75.60
35445;DHT22;21562;49.476;6.086;2022-07-06T15:26:14;24.60;74.50
35445;DHT22;21562;49.476;6.086;2022-07-06T15:28:40;24.50;75.50
35445;DHT22;21562;49.476;6.086;2022-07-06T15:31:06;24.90;73.60
35445;DHT22;21562;49.476;6.086;2022-07-06T15:33:31;24.90;73.60
35445;DHT22;21562;49.476;6.086;2022-07-06T15:35:57;24.80;75.90
35445;DHT22;21562;49.476;6.086;2022-07-06T15:38:23;24.80;73.60
35445;DHT22;21562;49.476;6.086;2022-07-06T15:40:48;24.50;74.50
35445;DHT22;21562;49.476;6.086;2022-07-06T15:43:21;23.90;76.00
35445;DHT22;21562;49.476;6.086;2022-07-06T15:45:47;24.50;75.20
35445;DHT22;21562;49.476;6.086;2022-07-06T15:48:13;25.00;75.50
35445;DHT22;21562;49.476;6.086;2022-07-06T15:50:38;25.00;73.90
35445;DHT22;21562;49.476;6.086;2022-07-06T15:53:04;23.90;75.10
35445;DHT22;21562;49.476;6.086;2022-07-06T15:55:30;23.80;75.90
35445;DHT22;21562;49.476;6.086;2022-07-06T15:57:56;23.60;77.40
35445;DHT22;21562;49.476;6.086;2022-07-06T16:00:21;23.90;77.00